Time;durP1;ratioP1;P1;durP2;ratioP2;P2;SDS_P1;SDS_P2;PMS_P1;PMS_P2;Temp;Humidity;BMP_temperature;BMP_pressure;BME280_temperature;BME280_humidity;BME280_pressure;Samples;Min_cycle;Max_cycle;Signal;HPM_P1;HPM_P2
2021/01/29 00:00:25;;;;;;;5.63;0.90;;;9.00;99.90;;;;;;4924513;29;20056;-70
2021/01/29 00:02:54;;;;;;;5.32;1.00;;;8.90;99.90;;;;;;4933484;29;20044;-70
2021/01/29 00:05:22;;;;;;;4.57;1.10;;;8.90;99.90;;;;;;4931494;29;20062;-70
2021/01/29 00:07:49;;;;;;;4.93;1.00;;;8.90;99.90;;;;;;4942839;28;20429;-70
2021/01/29 00:10:16;;;;;;;4.32;0.95;;;8.90;99.90;;;;;;4933067;29;20498;-70
2021/01/29 00:12:42;;;;;;;5.53;1.05;;;8.90;99.90;;;;;;4933569;29;20083;-70
2021/01/29 00:15:11;;;;;;;4.35;1.17;;;8.90;99.90;;;;;;4933674;29;20135;-70
2021/01/29 00:17:39;;;;;;;6.88;1.38;;;8.90;99.90;;;;;;4932615;29;20095;-70
2021/01/29 00:20:10;;;;;;;5.68;1.40;;;8.80;99.90;;;;;;4938402;29;20090;-70
2021/01/29 00:22:37;;;;;;;7.70;1.77;;;8.90;99.90;;;;;;4936785;28;20048;-70
2021/01/29 00:25:07;;;;;;;6.60;1.63;;;8.90;99.90;;;;;;4933169;29;20138;-70
2021/01/29 00:27:34;;;;;;;4.72;1.52;;;8.80;99.90;;;;;;4933067;29;20043;-70
2021/01/29 00:30:01;;;;;;;5.10;1.13;;;8.80;99.90;;;;;;4933031;29;20134;-70
2021/01/29 00:32:27;;;;;;;4.72;1.13;;;8.80;99.90;;;;;;4929309;28;20115;-70
2021/01/29 00:34:54;;;;;;;3.53;1.40;;;8.80;99.90;;;;;;4928440;29;20134;-70
2021/01/29 00:37:20;;;;;;;4.45;1.30;;;8.80;99.90;;;;;;4928763;29;20179;-70
2021/01/29 00:39:47;;;;;;;3.63;0.82;;;8.80;99.90;;;;;;4928552;29;20151;-70
2021/01/29 00:42:13;;;;;;;3.67;1.50;;;8.80;99.90;;;;;;4930599;29;20123;-70
2021/01/29 00:44:39;;;;;;;4.88;1.00;;;8.80;99.90;;;;;;4933074;29;20401;-70
2021/01/29 00:47:05;;;;;;;2.55;1.10;;;8.80;99.90;;;;;;4932452;29;20408;-70
2021/01/29 00:49:32;;;;;;;3.20;0.82;;;8.80;99.90;;;;;;4933393;29;20075;-70
2021/01/29 00:51:59;;;;;;;2.55;0.80;;;8.80;99.90;;;;;;4943447;28;20483;-70
2021/01/29 00:54:25;;;;;;;3.83;0.88;;;8.80;99.90;;;;;;4941566;29;20556;-70
2021/01/29 00:56:51;;;;;;;2.42;0.60;;;8.90;99.90;;;;;;4934251;28;20138;-70
2021/01/29 00:59:18;;;;;;;0.73;0.40;;;8.80;99.90;;;;;;4935212;29;20525;-71
2021/01/29 01:01:44;;;;;;;0.60;0.40;;;8.80;99.90;;;;;;4943252;29;20086;-71
2021/01/29 01:04:12;;;;;;;0.60;0.35;;;8.90;99.90;;;;;;4931907;29;20043;-70
2021/01/29 01:06:41;;;;;;;1.10;0.60;;;8.90;99.90;;;;;;4933016;29;20128;-70
2021/01/29 01:09:07;;;;;;;1.60;0.60;;;8.90;99.90;;;;;;4933415;28;20323;-70
2021/01/29 01:11:34;;;;;;;1.05;0.50;;;9.00;99.90;;;;;;4932474;29;20052;-70
2021/01/29 01:14:00;;;;;;;0.73;0.43;;;8.90;99.90;;;;;;4933229;29;20090;-70
2021/01/29 01:16:30;;;;;;;0.52;0.30;;;9.00;99.90;;;;;;4941115;29;20137;-70
2021/01/29 01:18:57;;;;;;;1.58;0.30;;;9.00;99.90;;;;;;4933666;28;20414;-70
2021/01/29 01:21:23;;;;;;;1.88;0.40;;;9.00;99.90;;;;;;4932930;29;20578;-70
2021/01/29 01:23:49;;;;;;;0.63;0.40;;;9.00;99.90;;;;;;4930423;29;20047;-70
2021/01/29 01:26:16;;;;;;;0.60;0.40;;;9.00;99.90;;;;;;4933648;29;20066;-70
2021/01/29 01:28:43;;;;;;;0.90;0.32;;;9.00;99.90;;;;;;4934959;29;20078;-70
2021/01/29 01:31:09;;;;;;;0.70;0.38;;;9.00;99.90;;;;;;4933195;29;20083;-70
2021/01/29 01:33:36;;;;;;;1.73;0.52;;;9.00;99.90;;;;;;4930912;29;20138;-70
2021/01/29 01:36:03;;;;;;;1.27;0.30;;;9.00;99.90;;;;;;4932827;29;20115;-70
2021/01/29 01:38:29;;;;;;;0.95;0.50;;;9.10;99.90;;;;;;4930139;29;20506;-69
2021/01/29 01:40:55;;;;;;;0.60;0.40;;;9.00;99.90;;;;;;4932380;29;20507;-69
2021/01/29 01:43:23;;;;;;;1.10;0.40;;;9.10;99.90;;;;;;4941758;29;20086;-69
2021/01/29 01:46:17;;;;;;;0.40;0.30;;;9.10;99.90;;;;;;4938017;28;20126;-69
2021/01/29 01:48:52;;;;;;;1.27;0.40;;;9.10;99.90;;;;;;4938721;29;20083;-69
2021/01/29 01:51:26;;;;;;;0.50;0.38;;;9.10;99.90;;;;;;4933652;29;20217;-70
2021/01/29 01:53:57;;;;;;;1.00;0.50;;;9.10;99.90;;;;;;4927030;29;20130;-70
2021/01/29 01:56:46;;;;;;;1.00;0.50;;;9.20;99.90;;;;;;4931396;29;20138;-70
2021/01/29 01:59:19;;;;;;;0.60;0.43;;;9.10;99.90;;;;;;4935973;28;20078;-69
2021/01/29 02:01:48;;;;;;;1.63;0.40;;;9.20;99.90;;;;;;4942967;29;20408;-70
2021/01/29 02:04:16;;;;;;;0.60;0.40;;;9.20;99.90;;;;;;4948359;29;20054;-70
2021/01/29 02:07:13;;;;;;;1.83;0.50;;;9.30;99.90;;;;;;4939891;28;20048;-69
2021/01/29 02:09:44;;;;;;;0.55;0.30;;;9.40;99.90;;;;;;4925076;29;20147;-70
2021/01/29 02:12:10;;;;;;;1.02;0.50;;;9.30;99.90;;;;;;4931647;29;20529;-70
2021/01/29 02:14:36;;;;;;;1.58;0.65;;;9.30;99.90;;;;;;4937746;29;20090;-70
2021/01/29 02:17:26;;;;;;;1.95;0.60;;;9.30;99.90;;;;;;4935776;28;20044;-70
2021/01/29 02:20:31;;;;;;;1.15;0.52;;;9.30;99.90;;;;;;4932367;29;20048;-70
2021/01/29 02:23:28;;;;;;;1.65;0.50;;;9.30;99.90;;;;;;4934549;29;20499;-70
2021/01/29 02:26:19;;;;;;;1.52;0.50;;;9.30;99.90;;;;;;4936648;29;20047;-69
2021/01/29 02:28:57;;;;;;;1.08;0.70;;;9.40;99.90;;;;;;4929253;28;20055;-70
2021/01/29 02:31:54;;;;;;;1.80;0.63;;;9.40;99.90;;;;;;4936076;29;20055;-70
2021/01/29 02:35:18;;;;;;;1.50;0.60;;;9.40;99.90;;;;;;4929032;29;20064;-70
2021/01/29 02:38:00;;;;;;;1.05;0.50;;;9.40;99.90;;;;;;4863052;29;20053;-70
2021/01/29 02:41:03;;;;;;;1.92;0.52;;;9.30;99.90;;;;;;4935773;29;20146;-69
2021/01/29 02:43:46;;;;;;;1.42;0.55;;;9.40;99.90;;;;;;4943933;29;20134;-69
2021/01/29 02:46:29;;;;;;;3.40;0.70;;;9.40;99.90;;;;;;4932614;29;20589;-69
2021/01/29 02:48:59;;;;;;;1.48;0.50;;;9.40;99.90;;;;;;4948454;29;20062;-69
2021/01/29 02:51:37;;;;;;;1.52;0.60;;;9.40;99.90;;;;;;4936519;29;20558;-70
2021/01/29 02:54:14;;;;;;;2.03;0.60;;;9.40;99.90;;;;;;4928214;29;20491;-69
2021/01/29 02:57:19;;;;;;;2.45;0.68;;;9.50;99.90;;;;;;4942200;29;20044;-70
2021/01/29 02:59:53;;;;;;;3.78;0.82;;;9.40;99.90;;;;;;4932936;29;20119;-69
2021/01/29 03:02:48;;;;;;;3.85;0.93;;;9.40;99.90;;;;;;4947836;29;20152;-69
2021/01/29 03:05:22;;;;;;;3.03;0.82;;;9.40;99.90;;;;;;4930823;29;20044;-70
2021/01/29 03:08:00;;;;;;;2.40;0.80;;;9.40;99.90;;;;;;4930031;29;20044;-70
2021/01/29 03:10:47;;;;;;;2.55;1.00;;;9.40;99.90;;;;;;4943137;29;20126;-70
2021/01/29 03:13:29;;;;;;;2.55;0.63;;;9.40;99.90;;;;;;4931646;29;20044;-69
2021/01/29 03:16:11;;;;;;;0.50;0.40;;;9.40;99.90;;;;;;4938305;29;20078;-69
2021/01/29 03:19:07;;;;;;;1.05;0.68;;;9.40;99.90;;;;;;4933976;28;20460;-69
2021/01/29 03:21:43;;;;;;;2.28;0.50;;;9.40;99.90;;;;;;4946481;29;20079;-69
2021/01/29 03:24:36;;;;;;;2.17;0.70;;;9.40;99.90;;;;;;4934265;29;20086;-70
2021/01/29 03:27:22;;;;;;;1.50;0.90;;;9.40;99.90;;;;;;4932064;29;20495;-70
2021/01/29 03:29:56;;;;;;;2.10;0.85;;;9.50;99.90;;;;;;4949260;29;20079;-70
2021/01/29 03:32:25;;;;;;;2.15;1.00;;;9.40;99.90;;;;;;4937090;29;20106;-69
2021/01/29 03:35:07;;;;;;;1.98;0.88;;;9.40;99.90;;;;;;4935603;29;20079;-70
2021/01/29 03:37:42;;;;;;;2.47;0.80;;;9.40;99.90;;;;;;4933549;29;20083;-69
2021/01/29 03:40:09;;;;;;;2.25;0.65;;;9.40;99.90;;;;;;4940664;29;20431;-69
2021/01/29 03:43:01;;;;;;;4.85;0.68;;;9.40;99.90;;;;;;4943244;28;20048;-70
2021/01/29 03:45:35;;;;;;;3.22;0.50;;;9.30;99.90;;;;;;4933215;29;20128;-69
2021/01/29 03:48:24;;;;;;;2.70;0.70;;;9.20;99.90;;;;;;4941617;28;20058;-69
2021/01/29 03:51:10;;;;;;;0.80;0.45;;;9.30;99.90;;;;;;4933740;29;20048;-69
2021/01/29 03:53:51;;;;;;;1.35;0.50;;;9.30;99.90;;;;;;4942761;29;20101;-70
2021/01/29 03:56:27;;;;;;;1.90;0.60;;;9.20;99.90;;;;;;4924435;29;20051;-70
2021/01/29 03:58:59;;;;;;;0.73;0.40;;;9.20;99.90;;;;;;4934506;29;20083;-70
2021/01/29 04:01:53;;;;;;;1.42;0.50;;;9.20;99.90;;;;;;4942131;28;20090;-70
2021/01/29 04:04:28;;;;;;;1.05;0.50;;;9.20;99.90;;;;;;4951191;28;20055;-70
2021/01/29 04:07:22;;;;;;;1.05;0.40;;;9.20;99.90;;;;;;4943486;29;20127;-69
2021/01/29 04:09:57;;;;;;;0.50;0.30;;;9.10;99.90;;;;;;4932000;29;20082;-70
2021/01/29 04:12:36;;;;;;;0.32;0.25;;;9.20;99.90;;;;;;4933703;29;20083;-70
2021/01/29 04:15:33;;;;;;;2.10;0.32;;;9.30;99.90;;;;;;4929913;29;20110;-69
2021/01/29 04:18:19;;;;;;;0.55;0.30;;;9.10;99.90;;;;;;4932104;29;20052;-70
2021/01/29 04:21:01;;;;;;;1.35;0.38;;;9.10;99.90;;;;;;4933584;29;20155;-69
2021/01/29 04:23:42;;;;;;;1.65;0.40;;;9.10;99.90;;;;;;4942937;29;20119;-70
2021/01/29 04:26:14;;;;;;;0.20;0.20;;;9.20;99.90;;;;;;4933684;29;20142;-69
2021/01/29 04:28:47;;;;;;;0.20;0.20;;;9.10;99.90;;;;;;4933360;28;20051;-70
2021/01/29 04:31:17;;;;;;;0.30;0.20;;;9.10;99.90;;;;;;4933012;29;20043;-69
2021/01/29 04:33:51;;;;;;;0.75;0.20;;;9.20;99.90;;;;;;4938490;29;20043;-69
2021/01/29 04:36:21;;;;;;;0.25;0.20;;;9.20;99.90;;;;;;4914717;29;20090;-70
2021/01/29 04:38:52;;;;;;;0.40;0.20;;;9.20;99.90;;;;;;4919420;29;20100;-69
2021/01/29 04:41:21;;;;;;;0.10;0.10;;;9.20;99.90;;;;;;4925082;29;20062;-69
2021/01/29 04:44:18;;;;;;;0.20;0.10;;;9.10;99.90;;;;;;4941479;29;20106;-70
2021/01/29 04:46:59;;;;;;;0.63;0.30;;;9.20;99.90;;;;;;4937352;28;20051;-69
2021/01/29 04:49:45;;;;;;;0.80;0.30;;;9.20;99.90;;;;;;4932932;29;20164;-69
2021/01/29 04:52:45;;;;;;;0.85;0.20;;;9.20;99.90;;;;;;4949421;29;20098;-69
2021/01/29 04:55:31;;;;;;;0.52;0.30;;;9.20;99.90;;;;;;4931024;29;20064;-70
2021/01/29 04:58:14;;;;;;;0.50;0.30;;;9.20;99.90;;;;;;4931448;28;20061;-69
2021/01/29 05:01:22;;;;;;;0.20;0.10;;;9.20;99.90;;;;;;4936235;29;20546;-70
2021/01/29 05:04:36;;;;;;;0.20;0.20;;;9.20;99.90;;;;;;4933993;29;20087;-69
2021/01/29 05:07:24;;;;;;;0.88;0.20;;;9.30;99.90;;;;;;4953943;28;20145;-70
2021/01/29 05:09:58;;;;;;;0.30;0.10;;;9.30;99.90;;;;;;4949941;29;20137;-69
2021/01/29 05:12:46;;;;;;;0.20;0.20;;;9.40;99.90;;;;;;4936711;29;20130;-70
2021/01/29 05:15:24;;;;;;;0.47;0.20;;;9.40;99.90;;;;;;4930409;29;20048;-69
2021/01/29 05:18:18;;;;;;;0.30;0.20;;;9.40;99.90;;;;;;4930957;29;20063;-70
2021/01/29 05:21:07;;;;;;;0.40;0.10;;;9.30;99.90;;;;;;4936185;29;20071;-69
2021/01/29 05:24:04;;;;;;;0.20;0.15;;;9.40;99.90;;;;;;4912529;29;20131;-69
2021/01/29 05:26:59;;;;;;;0.63;0.20;;;9.40;99.90;;;;;;4929680;29;20142;-69
2021/01/29 05:29:44;;;;;;;1.67;0.20;;;9.50;99.90;;;;;;4918467;29;20134;-69
2021/01/29 05:32:41;;;;;;;0.70;0.20;;;9.60;99.90;;;;;;4933023;29;20175;-69
2021/01/29 05:35:46;;;;;;;0.10;0.10;;;9.50;99.90;;;;;;4936828;29;20048;-69
2021/01/29 05:38:31;;;;;;;0.35;0.20;;;9.40;99.90;;;;;;4932297;29;20186;-69
2021/01/29 05:41:16;;;;;;;1.15;0.20;;;9.30;99.90;;;;;;4949235;29;20107;-69
2021/01/29 05:43:49;;;;;;;10.50;0.40;;;9.20;99.90;;;;;;4932237;28;20086;-69
2021/01/29 05:46:52;;;;;;;2.05;0.20;;;9.00;99.90;;;;;;4931987;29;20075;-69
2021/01/29 05:49:24;;;;;;;0.10;0.10;;;8.90;99.90;;;;;;4924661;29;20087;-70
2021/01/29 05:52:09;;;;;;;0.63;0.20;;;8.90;99.90;;;;;;4931921;29;20492;-69
2021/01/29 05:54:39;;;;;;;0.40;0.20;;;8.80;99.90;;;;;;4932312;29;20067;-69
2021/01/29 05:57:29;;;;;;;1.48;0.20;;;8.70;99.90;;;;;;4913210;29;20100;-70
2021/01/29 06:00:08;;;;;;;0.85;0.20;;;8.70;99.90;;;;;;4935430;29;20039;-70
2021/01/29 06:02:55;;;;;;;0.32;0.20;;;8.70;99.90;;;;;;4931399;29;20130;-69
2021/01/29 06:05:28;;;;;;;3.88;0.25;;;8.60;99.90;;;;;;4930102;29;20056;-70
2021/01/29 06:08:41;;;;;;;0.22;0.20;;;8.60;99.90;;;;;;4931075;29;20126;-70
2021/01/29 06:11:34;;;;;;;6.35;0.40;;;8.60;99.90;;;;;;4928880;29;20083;-70
2021/01/29 06:14:28;;;;;;;0.32;0.20;;;8.60;99.90;;;;;;4934136;29;20126;-70
2021/01/29 06:17:28;;;;;;;0.20;0.20;;;8.50;99.90;;;;;;4930114;29;20138;-69
2021/01/29 06:20:29;;;;;;;0.88;0.30;;;8.40;99.90;;;;;;4913446;29;20144;-69
2021/01/29 06:23:05;;;;;;;0.55;0.30;;;8.40;99.90;;;;;;4940097;29;20147;-70
2021/01/29 06:26:03;;;;;;;2.30;0.20;;;8.40;99.90;;;;;;4931558;29;20090;-70
2021/01/29 06:28:53;;;;;;;1.17;0.30;;;8.40;99.90;;;;;;4938083;28;20126;-70
2021/01/29 06:31:47;;;;;;;0.68;0.20;;;8.40;99.90;;;;;;4930453;29;20068;-70
2021/01/29 06:34:52;;;;;;;0.50;0.20;;;8.40;99.90;;;;;;4923281;29;20130;-70
2021/01/29 06:37:45;;;;;;;0.63;0.22;;;8.60;99.90;;;;;;4930927;29;20074;-70
2021/01/29 06:40:19;;;;;;;1.45;0.28;;;8.60;99.90;;;;;;4948195;29;20125;-70
2021/01/29 06:43:21;;;;;;;1.33;0.30;;;8.50;99.90;;;;;;4932854;28;20083;-70
2021/01/29 06:46:09;;;;;;;0.55;0.30;;;8.50;99.90;;;;;;4929193;29;20071;-70
2021/01/29 06:49:03;;;;;;;0.65;0.20;;;8.50;99.90;;;;;;4930710;29;20447;-70
2021/01/29 06:51:49;;;;;;;1.55;0.40;;;8.50;99.90;;;;;;4931207;29;20146;-70
2021/01/29 06:54:36;;;;;;;1.85;0.30;;;8.40;99.90;;;;;;4936215;29;20443;-70
2021/01/29 06:57:02;;;;;;;2.65;0.40;;;8.30;99.90;;;;;;4930714;29;20138;-71
2021/01/29 07:00:07;;;;;;;0.57;0.20;;;8.20;99.90;;;;;;4929489;28;20075;-71
2021/01/29 07:02:41;;;;;;;2.88;0.30;;;8.10;99.90;;;;;;4944128;28;20130;-70
2021/01/29 07:05:35;;;;;;;1.08;0.30;;;8.00;99.90;;;;;;4929578;29;20675;-70
2021/01/29 07:08:33;;;;;;;5.28;1.77;;;8.00;99.90;;;;;;4926048;28;20050;-71
2021/01/29 07:11:21;;;;;;;6.45;3.20;;;8.10;99.90;;;;;;4927210;29;20047;-70
2021/01/29 07:14:10;;;;;;;4.15;1.30;;;8.00;99.90;;;;;;4932079;29;20126;-70
2021/01/29 07:16:51;;;;;;;2.00;0.98;;;8.10;99.90;;;;;;4934154;29;20131;-71
2021/01/29 07:19:27;;;;;;;0.85;0.50;;;8.10;99.90;;;;;;4949626;28;20205;-71
2021/01/29 07:22:17;;;;;;;0.63;0.40;;;8.10;99.90;;;;;;4933344;29;20426;-71
2021/01/29 07:25:05;;;;;;;0.90;0.30;;;8.20;99.90;;;;;;4931167;29;20122;-70
2021/01/29 07:28:09;;;;;;;0.73;0.30;;;8.20;99.90;;;;;;4931908;29;20055;-70
2021/01/29 07:30:41;;;;;;;3.70;0.60;;;8.30;99.90;;;;;;4938433;29;20067;-70
2021/01/29 07:33:25;;;;;;;7.10;0.70;;;8.30;99.90;;;;;;4935595;29;20103;-70
2021/01/29 07:36:13;;;;;;;0.98;0.30;;;8.30;99.90;;;;;;4935691;29;20491;-70
2021/01/29 07:39:17;;;;;;;3.15;0.52;;;8.40;99.90;;;;;;4935150;28;20053;-70
2021/01/29 07:41:43;;;;;;;;;;;8.40;99.90;;;;;;4934418;29;20059;-71
2021/01/29 07:44:29;;;;;;;4.72;0.45;;;8.40;99.90;;;;;;4928625;29;20333;-70
2021/01/29 07:47:13;;;;;;;3.72;0.45;;;8.40;99.90;;;;;;4932928;29;20119;-70
2021/01/29 07:49:57;;;;;;;1.60;0.30;;;8.40;99.90;;;;;;4931466;29;20052;-70
2021/01/29 07:52:49;;;;;;;4.95;0.50;;;8.40;99.90;;;;;;4929727;29;20127;-70
2021/01/29 07:55:56;;;;;;;2.17;0.30;;;8.40;99.90;;;;;;4928633;29;20132;-70
2021/01/29 07:58:32;;;;;;;2.67;0.40;;;8.50;99.90;;;;;;4933090;29;20051;-70
2021/01/29 08:01:10;;;;;;;1.38;0.45;;;8.50;99.90;;;;;;4934268;29;20079;-71
2021/01/29 08:04:04;;;;;;;5.28;0.65;;;8.60;99.90;;;;;;4941155;28;20070;-70
2021/01/29 08:06:38;;;;;;;5.07;0.65;;;8.50;99.90;;;;;;4933869;28;20514;-71
2021/01/29 08:09:23;;;;;;;;;;;8.60;99.90;;;;;;4936691;28;20048;-70
2021/01/29 08:11:54;;;;;;;5.40;0.60;;;8.60;99.90;;;;;;4933270;29;19965;-70
2021/01/29 08:14:58;;;;;;;7.30;1.45;;;8.70;99.90;;;;;;4953069;28;20051;-70
2021/01/29 08:18:00;;;;;;;3.00;0.90;;;8.70;99.90;;;;;;4947412;28;20070;-70
2021/01/29 08:20:42;;;;;;;2.85;0.80;;;8.90;99.90;;;;;;4923655;29;20192;-71
2021/01/29 08:23:11;;;;;;;2.72;0.40;;;9.00;99.90;;;;;;4940426;28;20058;-71
2021/01/29 08:25:57;;;;;;;8.90;0.88;;;9.10;99.90;;;;;;4941790;29;20051;-71
2021/01/29 08:28:51;;;;;;;3.35;0.52;;;9.10;99.90;;;;;;4949581;28;20111;-70
2021/01/29 08:31:37;;;;;;;5.85;0.50;;;9.20;99.90;;;;;;4940691;28;20044;-71
2021/01/29 08:34:26;;;;;;;5.55;0.65;;;9.20;99.90;;;;;;4932910;29;20123;-70
2021/01/29 08:37:41;;;;;;;4.32;0.80;;;9.30;99.90;;;;;;4935889;29;20048;-70
2021/01/29 08:40:16;;;;;;;7.55;1.20;;;9.20;99.90;;;;;;4942202;28;20147;-71
2021/01/29 08:42:49;;;;;;;7.28;0.90;;;9.30;99.90;;;;;;4932518;29;20099;-70
2021/01/29 08:45:54;;;;;;;8.38;1.00;;;9.30;99.90;;;;;;4932944;29;20052;-71
2021/01/29 08:48:20;;;;;;;4.35;0.63;;;9.20;99.90;;;;;;4916778;29;20122;-71
2021/01/29 08:51:09;;;;;;;9.20;0.98;;;9.20;99.90;;;;;;4940925;28;20055;-70
2021/01/29 08:53:44;;;;;;;9.27;0.70;;;9.20;99.90;;;;;;4937362;28;20154;-70
2021/01/29 08:56:36;;;;;;;10.77;1.20;;;9.20;99.90;;;;;;4941728;29;20055;-71
2021/01/29 08:59:05;;;;;;;11.05;0.98;;;9.10;99.90;;;;;;4932506;29;20051;-70
2021/01/29 09:02:02;;;;;;;8.88;0.95;;;9.10;99.90;;;;;;4940166;29;20158;-70
2021/01/29 09:04:38;;;;;;;9.48;1.13;;;9.10;99.90;;;;;;4931636;29;20052;-70
2021/01/29 09:07:10;;;;;;;8.65;0.63;;;9.10;99.90;;;;;;4931111;29;20146;-71
2021/01/29 09:09:38;;;;;;;9.77;1.13;;;9.10;99.90;;;;;;4946555;29;20060;-71
2021/01/29 09:12:18;;;;;;;8.38;1.00;;;8.80;99.90;;;;;;4932307;29;20821;-71
2021/01/29 09:14:58;;;;;;;10.82;1.05;;;8.80;99.90;;;;;;4934768;29;20084;-71
2021/01/29 09:17:39;;;;;;;11.20;1.08;;;8.80;99.90;;;;;;4929264;29;20601;-70
2021/01/29 09:20:07;;;;;;;13.60;1.20;;;8.90;99.90;;;;;;4944283;29;20047;-70
2021/01/29 09:22:40;;;;;;;12.48;1.33;;;9.00;99.90;;;;;;4943844;28;20111;-70
2021/01/29 09:25:06;;;;;;;7.78;1.02;;;9.10;99.90;;;;;;4934181;29;20375;-70
2021/01/29 09:27:51;;;;;;;11.13;1.33;;;9.20;99.90;;;;;;4941613;28;20039;-70
2021/01/29 09:30:29;;;;;;;6.28;0.98;;;9.20;99.90;;;;;;4932026;29;20526;-71
2021/01/29 09:33:17;;;;;;;13.70;1.85;;;9.30;99.90;;;;;;4931811;29;20475;-71
2021/01/29 09:35:59;;;;;;;7.68;1.00;;;9.40;99.90;;;;;;4931659;29;20095;-70
2021/01/29 09:38:35;;;;;;;14.70;1.40;;;9.50;99.90;;;;;;4930687;28;20051;-70
2021/01/29 09:41:07;;;;;;;7.60;1.08;;;9.60;99.90;;;;;;4927138;29;20075;-70
2021/01/29 09:43:42;;;;;;;5.88;0.70;;;9.70;99.90;;;;;;4929168;29;20099;-70
2021/01/29 09:46:10;;;;;;;8.15;1.08;;;9.80;99.90;;;;;;4928942;29;20052;-71
2021/01/29 09:48:41;;;;;;;7.35;0.82;;;9.70;99.90;;;;;;4931953;29;20500;-70
2021/01/29 09:51:38;;;;;;;10.00;0.70;;;9.40;99.90;;;;;;4932036;29;20058;-71
2021/01/29 09:54:17;;;;;;;11.80;1.05;;;9.30;99.90;;;;;;4930066;29;20114;-70
2021/01/29 09:56:50;;;;;;;9.07;1.08;;;9.40;99.90;;;;;;4928592;29;20439;-69
2021/01/29 09:59:43;;;;;;;13.50;1.42;;;9.30;99.90;;;;;;4923053;29;20056;-71
2021/01/29 10:02:47;;;;;;;6.88;0.90;;;9.00;99.90;;;;;;4922316;29;20120;-72
2021/01/29 10:05:33;;;;;;;10.50;1.33;;;8.60;99.90;;;;;;4942024;28;20050;-70
2021/01/29 10:08:21;;;;;;;13.13;1.88;;;8.40;99.90;;;;;;4928519;29;20090;-71
2021/01/29 10:11:03;;;;;;;11.75;1.50;;;8.50;99.90;;;;;;4925647;29;20099;-71
2021/01/29 10:13:45;;;;;;;9.48;0.98;;;8.70;99.90;;;;;;4929683;29;20087;-70
2021/01/29 10:16:23;;;;;;;10.00;0.98;;;8.70;99.90;;;;;;4928004;29;20067;-71
2021/01/29 10:19:15;;;;;;;7.03;1.02;;;8.60;99.90;;;;;;4928853;29;20299;-71
2021/01/29 10:22:05;;;;;;;5.78;0.80;;;8.60;99.90;;;;;;4929254;29;20055;-71
2021/01/29 10:24:48;;;;;;;10.57;1.10;;;8.60;99.90;;;;;;4930780;29;20059;-72
2021/01/29 10:27:17;;;;;;;12.07;1.73;;;8.70;99.90;;;;;;4927564;29;20112;-70
2021/01/29 10:29:48;;;;;;;10.52;0.93;;;8.80;99.90;;;;;;4920245;29;20091;-71
2021/01/29 10:32:22;;;;;;;6.03;0.85;;;8.80;99.90;;;;;;4930563;29;20075;-70
2021/01/29 10:35:01;;;;;;;9.70;1.00;;;8.90;99.90;;;;;;4927475;29;20080;-72
2021/01/29 10:37:33;;;;;;;9.05;1.10;;;9.00;99.90;;;;;;4923072;29;20047;-71
2021/01/29 10:40:12;;;;;;;7.93;1.02;;;9.00;99.90;;;;;;4938426;29;20106;-72
2021/01/29 10:42:56;;;;;;;13.60;1.50;;;8.90;99.90;;;;;;4930343;29;20424;-72
2021/01/29 10:45:34;;;;;;;9.50;1.17;;;9.10;99.90;;;;;;4931658;29;20431;-69
2021/01/29 10:48:21;;;;;;;5.88;0.77;;;9.20;99.90;;;;;;4927784;29;20431;-72
2021/01/29 10:51:01;;;;;;;10.15;1.30;;;9.20;99.90;;;;;;4946220;29;20395;-69
2021/01/29 10:53:28;;;;;;;9.20;1.27;;;9.20;99.90;;;;;;4925157;29;20134;-70
2021/01/29 10:56:01;;;;;;;8.77;1.35;;;9.40;99.90;;;;;;4933044;29;20056;-70
2021/01/29 10:58:45;;;;;;;10.25;1.15;;;9.40;99.90;;;;;;4930523;29;20099;-68
2021/01/29 11:01:33;;;;;;;7.65;0.90;;;9.40;99.90;;;;;;4932853;29;20055;-70
2021/01/29 11:04:05;;;;;;;10.05;1.17;;;9.50;99.90;;;;;;4933975;29;20075;-71
2021/01/29 11:06:59;;;;;;;10.73;1.27;;;9.50;99.90;;;;;;4929699;29;20126;-71
2021/01/29 11:09:35;;;;;;;11.55;1.45;;;9.50;99.90;;;;;;4935478;29;20135;-70
2021/01/29 11:12:18;;;;;;;13.70;1.85;;;9.50;99.90;;;;;;4935237;29;20051;-71
2021/01/29 11:14:56;;;;;;;14.07;2.72;;;9.60;99.90;;;;;;4935295;29;20179;-71
2021/01/29 11:17:42;;;;;;;10.70;1.52;;;9.50;99.90;;;;;;4933571;29;20111;-72
2021/01/29 11:20:17;;;;;;;11.32;1.40;;;9.40;99.90;;;;;;4925245;29;20451;-70
2021/01/29 11:23:04;;;;;;;13.57;1.52;;;9.40;99.90;;;;;;4929959;29;20048;-71
2021/01/29 11:25:38;;;;;;;13.45;1.30;;;9.00;99.90;;;;;;4934285;29;20067;-70
2021/01/29 11:28:13;;;;;;;10.07;1.75;;;8.70;99.90;;;;;;4931675;29;20107;-70
2021/01/29 11:31:02;;;;;;;14.07;2.00;;;8.50;99.90;;;;;;4935080;29;20110;-71
2021/01/29 11:33:34;;;;;;;15.65;1.83;;;8.30;99.90;;;;;;4928862;29;20079;-69
2021/01/29 11:36:04;;;;;;;14.93;1.45;;;8.30;99.90;;;;;;4930449;29;20467;-72
2021/01/29 11:39:07;;;;;;;12.43;1.35;;;8.20;99.90;;;;;;4934006;28;20159;-72
2021/01/29 11:41:47;;;;;;;15.75;1.25;;;8.30;99.90;;;;;;4925402;29;20052;-70
2021/01/29 11:44:41;;;;;;;24.67;1.60;;;8.20;99.90;;;;;;4929312;29;20134;-71
2021/01/29 11:47:38;;;;;;;14.48;1.27;;;8.20;99.90;;;;;;4933065;29;20519;-71
2021/01/29 11:50:14;;;;;;;18.25;1.98;;;8.30;99.90;;;;;;4933149;29;20048;-71
2021/01/29 11:52:53;;;;;;;11.60;2.03;;;8.50;99.90;;;;;;4934195;29;20075;-71
2021/01/29 11:55:29;;;;;;;12.15;1.73;;;8.60;99.90;;;;;;4932925;29;20052;-71
2021/01/29 11:58:24;;;;;;;16.65;2.15;;;8.70;99.90;;;;;;4932705;29;20549;-71
2021/01/29 12:01:04;;;;;;;17.40;1.92;;;8.80;99.90;;;;;;4933438;29;20379;-71
2021/01/29 12:03:52;;;;;;;13.40;1.42;;;8.80;99.90;;;;;;4929302;29;20140;-71
2021/01/29 12:06:23;;;;;;;14.73;2.15;;;8.90;99.90;;;;;;4932094;29;20087;-71
2021/01/29 12:09:01;;;;;;;10.35;1.33;;;9.00;99.90;;;;;;4933371;29;20095;-71
2021/01/29 12:11:36;;;;;;;14.50;1.40;;;9.10;99.90;;;;;;4922462;29;20086;-71
2021/01/29 12:14:29;;;;;;;14.35;2.13;;;9.10;99.90;;;;;;4933513;29;20079;-70
2021/01/29 12:17:01;;;;;;;;;;;9.20;99.90;;;;;;4934942;29;20502;-71
2021/01/29 12:19:34;;;;;;;11.18;1.67;;;9.20;99.90;;;;;;4932479;29;19930;-71
2021/01/29 12:22:19;;;;;;;;;;;9.30;99.90;;;;;;4932208;29;20043;-71
2021/01/29 12:25:25;;;;;;;10.85;1.20;;;9.30;99.90;;;;;;4927544;29;19922;-71
2021/01/29 12:28:04;;;;;;;10.73;1.42;;;9.30;99.90;;;;;;4923882;28;20083;-71
2021/01/29 12:30:53;;;;;;;9.60;1.00;;;9.20;99.90;;;;;;4956217;28;20051;-71
2021/01/29 12:33:24;;;;;;;12.60;1.73;;;9.10;99.90;;;;;;4937900;29;20062;-72
2021/01/29 12:35:55;;;;;;;13.10;1.52;;;8.70;99.90;;;;;;4952020;28;20078;-72
2021/01/29 12:38:30;;;;;;;11.32;1.10;;;8.50;99.90;;;;;;4939079;29;20138;-71
2021/01/29 12:41:27;;;;;;;8.82;1.38;;;8.40;99.90;;;;;;4951275;29;20047;-71
2021/01/29 12:44:35;;;;;;;6.80;0.93;;;8.50;99.90;;;;;;4951871;28;20098;-70
2021/01/29 12:47:17;;;;;;;16.77;1.77;;;8.60;99.90;;;;;;4946765;28;20055;-70
2021/01/29 12:49:49;;;;;;;11.05;1.58;;;8.70;99.90;;;;;;4951838;28;20055;-70
2021/01/29 12:52:19;;;;;;;9.32;1.27;;;8.80;99.90;;;;;;4951877;28;20424;-70
2021/01/29 12:54:57;;;;;;;11.95;1.30;;;8.80;99.90;;;;;;4951511;28;20138;-71
2021/01/29 12:57:27;;;;;;;11.23;1.27;;;8.80;99.90;;;;;;4950242;28;20125;-70
2021/01/29 13:00:05;;;;;;;6.88;1.25;;;8.70;99.90;;;;;;4953389;28;20047;-70
2021/01/29 13:02:43;;;;;;;7.65;1.25;;;8.60;99.90;;;;;;4951003;28;20508;-71
2021/01/29 13:05:28;;;;;;;11.25;1.00;;;8.60;99.90;;;;;;4941723;28;20467;-70
2021/01/29 13:08:02;;;;;;;8.90;1.08;;;8.40;99.90;;;;;;4951409;28;20055;-70
2021/01/29 13:10:51;;;;;;;9.07;1.45;;;8.30;99.90;;;;;;4946975;29;20102;-71
2021/01/29 13:13:37;;;;;;;8.85;0.95;;;8.30;99.90;;;;;;4951962;28;20134;-70
2021/01/29 13:16:06;;;;;;;6.70;0.85;;;8.10;99.90;;;;;;4947955;28;20067;-71
2021/01/29 13:18:44;;;;;;;9.48;1.05;;;8.00;99.90;;;;;;4944045;28;20075;-70
2021/01/29 13:21:29;;;;;;;6.85;0.80;;;7.90;99.90;;;;;;4944402;28;20517;-71
2021/01/29 13:23:57;;;;;;;5.13;0.70;;;7.90;99.90;;;;;;4951638;29;20054;-71
2021/01/29 13:26:45;;;;;;;6.97;0.85;;;7.80;99.90;;;;;;4952833;28;20424;-71
2021/01/29 13:29:14;;;;;;;9.18;1.05;;;7.80;99.90;;;;;;4952674;28;20130;-71
2021/01/29 13:31:40;;;;;;;7.30;1.02;;;7.90;99.90;;;;;;4952758;28;20087;-70
2021/01/29 13:34:25;;;;;;;7.88;0.88;;;8.00;99.90;;;;;;4952018;29;20051;-71
2021/01/29 13:37:13;;;;;;;5.32;1.25;;;8.20;99.90;;;;;;4946113;28;20072;-71
2021/01/29 13:39:42;;;;;;;5.68;0.82;;;8.10;99.90;;;;;;4934487;29;20082;-70
2021/01/29 13:42:30;;;;;;;6.97;1.40;;;8.10;99.90;;;;;;4952563;28;20051;-70
2021/01/29 13:45:08;;;;;;;5.22;0.70;;;8.10;99.90;;;;;;4952332;28;20129;-70
2021/01/29 13:47:42;;;;;;;8.68;0.90;;;8.10;99.90;;;;;;4952207;28;20075;-70
2021/01/29 13:50:36;;;;;;;6.75;0.80;;;8.10;99.90;;;;;;4950864;29;20477;-70
2021/01/29 13:53:07;;;;;;;;;;;8.20;99.90;;;;;;4952321;28;20055;-70
2021/01/29 13:55:42;;;;;;;6.05;0.80;;;8.40;99.90;;;;;;4951027;28;19969;-71
2021/01/29 13:58:26;;;;;;;8.35;0.80;;;8.40;99.90;;;;;;4951120;28;20560;-71
2021/01/29 14:01:13;;;;;;;3.38;0.75;;;8.40;99.90;;;;;;4951639;28;20069;-71
2021/01/29 14:03:50;;;;;;;5.40;0.55;;;9.40;99.90;;;;;;4951374;28;20055;-71
2021/01/29 14:06:17;;;;;;;7.65;0.80;;;10.60;99.90;;;;;;4932503;29;20048;-71